Terminal Aerodrome Forecast
Issued by NWS

Home | Current Version | Previous Version | Text Only | Print | Product List | Glossary On
Versions: 1 2 3 4 5 6 7 8 9 10 11 12 13 14 15 16 17 18 19 20 21 22 23 24 25 26 27 28 29 30 31 32 33 34 35 36 37
000
FTUS43 KDMX 010530
TAFOTM
TAF
KOTM 010530Z 0106/0206 12012KT 1 1/2SM -SN BR BKN005 OVC014
     FM011000 07010KT 1SM -SN OVC009
     FM011500 04018G30KT 1/2SM -SN BLSN OVC006
     FM012300 36020G32KT 1SM -SN BLSN BKN009 OVC015
     FM020500 34018G27KT 4SM -SN SCT009 OVC020=

USA.gov is the U.S. government's official web portal to all federal, state and local government web resources and services.